Time;durP1;ratioP1;P1;durP2;ratioP2;P2;SDS_P1;SDS_P2;PMS_P1;PMS_P2;Temp;Humidity;BMP_temperature;BMP_pressure;BME280_temperature;BME280_humidity;BME280_pressure;Samples;Min_cycle;Max_cycle;Signal;HPM_P1;HPM_P2
2023/06/14 00:00:52;;;;;;;;;;;;;;;;;;2216833;58;7439;-17
2023/06/14 00:03:24;;;;;;;;;;;;;;;;;;2220195;58;1958;-17
2023/06/14 00:05:54;;;;;;;;;;;;;;;;;;2219823;58;1800;-17
2023/06/14 00:08:25;;;;;;;;;;;;;;;;;;2218908;66;2837;-17
2023/06/14 00:10:55;;;;;;;;;;;;;;;;;;2216603;59;1668;-17
2023/06/14 00:13:26;;;;;;;;;;;;;;;;;;2218468;66;1785;-20
2023/06/14 00:15:56;;;;;;;;;;;;;;;;;;2218095;66;2110;-19
2023/06/14 00:18:29;;;;;;;;;;;;;;;;;;2214726;59;2092;-19
2023/06/14 00:20:59;;;;;;;;;;;;;;;;;;2218584;66;1814;-17
2023/06/14 00:23:30;;;;;;;;;;;;;;;;;;2216969;66;2094;-20
2023/06/14 00:26:03;;;;;;;;;;;;;;;;;;2218969;58;1720;-20
2023/06/14 00:28:34;;;;;;;;;;;;;;;;;;2219217;58;2075;-19
2023/06/14 00:31:04;;;;;;;;;;;;;;;;;;2219705;58;1788;-19
2023/06/14 00:33:35;;;;;;;;;;;;;;;;;;2219659;58;1696;-17
2023/06/14 00:36:05;;;;;;;;;;;;;;;;;;2219315;58;2343;-17
2023/06/14 00:38:35;;;;;;;;;;;;;;;;;;2216245;66;1997;-18
2023/06/14 00:41:06;;;;;;;;;;;;;;;;;;2220455;66;1303;-17
2023/06/14 00:43:37;;;;;;;;;;;;;;;;;;2220163;59;1442;-17
2023/06/14 00:46:07;;;;;;;;;;;;;;;;;;2220764;59;1309;-17
2023/06/14 00:48:40;;;;;;;;;;;;;;;;;;2219997;58;1975;-18
2023/06/14 00:51:11;;;;;;;;;;;;;;;;;;2220975;58;1573;-17
2023/06/14 00:53:46;;;;;;;;;;;;;;;;;;2220019;59;1906;-17
2023/06/14 00:56:16;;;;;;;;;;;;;;;;;;2213301;66;1934;-20
2023/06/14 00:58:50;;;;;;;;;;;;;;;;;;2218877;59;2046;-17
2023/06/14 01:01:21;;;;;;;;;;;;;;;;;;2215534;59;1813;-17
2023/06/14 01:03:51;;;;;;;;;;;;;;;;;;2214871;59;1761;-17
2023/06/14 01:06:42;;;;;;;;;;;;;;;;;;2215041;66;1701;-17
2023/06/14 01:09:18;;;;;;;;;;;;;;;;;;2218647;66;1843;-18
2023/06/14 01:12:00;;;;;;;;;;;;;;;;;;2218944;66;1798;-17
2023/06/14 01:14:31;;;;;;;;;;;;;;;;;;2218799;66;1314;-17
2023/06/14 01:17:02;;;;;;;;;;;;;;;;;;2215506;66;1730;-17
2023/06/14 01:19:34;;;;;;;;;;;;;;;;;;2219003;66;1946;-17
2023/06/14 01:22:05;;;;;;;;;;;;;;;;;;2218858;66;1082;-20
2023/06/14 01:24:35;;;;;;;;;;;;;;;;;;2211745;66;1499;-20
2023/06/14 01:27:07;;;;;;;;;;;;;;;;;;2217661;58;1489;-19
2023/06/14 01:29:38;;;;;;;;;;;;;;;;;;2214141;66;1382;-20
2023/06/14 01:32:09;;;;;;;;;;;;;;;;;;2212454;59;1309;-17
2023/06/14 01:34:48;;;;;;;;;;;;;;;;;;2215033;66;1646;-17
2023/06/14 01:37:20;;;;;;;;;;;;;;;;;;2215855;66;2039;-17
2023/06/14 01:39:50;;;;;;;;;;;;;;;;;;2217758;66;1945;-17
2023/06/14 01:42:21;;;;;;;;;;;;;;;;;;2218729;66;1621;-18
2023/06/14 01:44:53;;;;;;;;;;;;;;;;;;2217880;66;1245;-20
2023/06/14 01:47:23;;;;;;;;;;;;;;;;;;2212703;59;1416;-20
2023/06/14 01:49:54;;;;;;;;;;;;;;;;;;2213943;66;1294;-20
2023/06/14 01:52:24;;;;;;;;;;;;;;;;;;2211899;59;1388;-20
2023/06/14 01:54:55;;;;;;;;;;;;;;;;;;2212470;59;1464;-17
2023/06/14 01:57:26;;;;;;;;;;;;;;;;;;2216407;59;1850;-18
2023/06/14 01:59:56;;;;;;;;;;;;;;;;;;2218896;58;1947;-17
2023/06/14 02:02:27;;;;;;;;;;;;;;;;;;2218089;58;1591;-17
2023/06/14 02:04:57;;;;;;;;;;;;;;;;;;2215535;59;1682;-17
2023/06/14 02:07:27;;;;;;;;;;;;;;;;;;2218933;58;1713;-17
2023/06/14 02:09:57;;;;;;;;;;;;;;;;;;2218998;66;1418;-17
2023/06/14 02:12:28;;;;;;;;;;;;;;;;;;2216083;66;1776;-17
2023/06/14 02:14:58;;;;;;;;;;;;;;;;;;2217780;66;1154;-18
2023/06/14 02:17:28;;;;;;;;;;;;;;;;;;2218089;59;1199;-17
2023/06/14 02:20:04;;;;;;;;;;;;;;;;;;2218166;66;1944;-17
2023/06/14 02:22:35;;;;;;;;;;;;;;;;;;2217531;66;1480;-17
2023/06/14 02:25:06;;;;;;;;;;;;;;;;;;2217992;66;1482;-17
2023/06/14 02:27:36;;;;;;;;;;;;;;;;;;2217657;58;1770;-17
2023/06/14 02:30:07;;;;;;;;;;;;;;;;;;2218654;58;1240;-17
2023/06/14 02:32:38;;;;;;;;;;;;;;;;;;2218226;58;1549;-17
2023/06/14 02:35:08;;;;;;;;;;;;;;;;;;2218618;59;1464;-17
2023/06/14 02:37:38;;;;;;;;;;;;;;;;;;2212510;66;1367;-17
2023/06/14 02:40:09;;;;;;;;;;;;;;;;;;2215714;66;1978;-17
2023/06/14 02:42:39;;;;;;;;;;;;;;;;;;2219138;59;1653;-17
2023/06/14 02:45:09;;;;;;;;;;;;;;;;;;2218309;66;1186;-17
2023/06/14 02:47:40;;;;;;;;;;;;;;;;;;2219488;58;1714;-17
2023/06/14 02:50:10;;;;;;;;;;;;;;;;;;2214476;59;1696;-17
2023/06/14 02:52:44;;;;;;;;;;;;;;;;;;2218825;66;1725;-17
2023/06/14 02:55:14;;;;;;;;;;;;;;;;;;2216159;66;1205;-17
2023/06/14 02:57:47;;;;;;;;;;;;;;;;;;2219656;58;1672;-17
2023/06/14 03:00:19;;;;;;;;;;;;;;;;;;2218152;59;1930;-17
2023/06/14 03:02:51;;;;;;;;;;;;;;;;;;2218492;58;1314;-20
2023/06/14 03:05:21;;;;;;;;;;;;;;;;;;2213397;59;2120;-17
2023/06/14 03:07:53;;;;;;;;;;;;;;;;;;2218403;66;1796;-17
2023/06/14 03:10:28;;;;;;;;;;;;;;;;;;2218972;66;1678;-17
2023/06/14 03:12:58;;;;;;;;;;;;;;;;;;2218163;66;1797;-18
2023/06/14 03:15:29;;;;;;;;;;;;;;;;;;2214975;66;1535;-20
2023/06/14 03:17:59;;;;;;;;;;;;;;;;;;2218462;66;1545;-20
2023/06/14 03:20:32;;;;;;;;;;;;;;;;;;2217818;66;1945;-20
2023/06/14 03:23:03;;;;;;;;;;;;;;;;;;2218759;59;1649;-20
2023/06/14 03:25:35;;;;;;;;;;;;;;;;;;2218304;66;1345;-20
2023/06/14 03:28:05;;;;;;;;;;;;;;;;;;2218805;58;1511;-18
2023/06/14 03:30:36;;;;;;;;;;;;;;;;;;2218029;58;2168;-17
2023/06/14 03:33:06;;;;;;;;;;;;;;;;;;2218467;59;2131;-17
2023/06/14 03:35:36;;;;;;;;;;;;;;;;;;2217831;66;1243;-17
2023/06/14 03:38:06;;;;;;;;;;;;;;;;;;2215167;66;1827;-17
2023/06/14 03:40:37;;;;;;;;;;;;;;;;;;2217880;66;2010;-17
2023/06/14 03:43:07;;;;;;;;;;;;;;;;;;2218559;66;1409;-17
2023/06/14 03:45:37;;;;;;;;;;;;;;;;;;2217889;59;1579;-17
2023/06/14 03:48:08;;;;;;;;;;;;;;;;;;2217882;59;1871;-17
2023/06/14 03:50:39;;;;;;;;;;;;;;;;;;2217699;59;1207;-18
2023/06/14 03:53:09;;;;;;;;;;;;;;;;;;2218092;58;1719;-17
2023/06/14 03:55:41;;;;;;;;;;;;;;;;;;2218914;66;1373;-17
2023/06/14 03:58:13;;;;;;;;;;;;;;;;;;2217830;59;1949;-17
2023/06/14 04:00:43;;;;;;;;;;;;;;;;;;2217215;58;2151;-17
2023/06/14 04:03:15;;;;;;;;;;;;;;;;;;2218588;58;2322;-17
2023/06/14 04:05:49;;;;;;;;;;;;;;;;;;2214977;58;1943;-17
2023/06/14 04:08:19;;;;;;;;;;;;;;;;;;2217897;58;1528;-17
2023/06/14 04:10:49;;;;;;;;;;;;;;;;;;2217462;66;2129;-17
2023/06/14 04:13:23;;;;;;;;;;;;;;;;;;2213986;59;1570;-17
2023/06/14 04:15:53;;;;;;;;;;;;;;;;;;2219214;66;1821;-17
2023/06/14 04:18:24;;;;;;;;;;;;;;;;;;2219154;66;1344;-17
2023/06/14 04:20:56;;;;;;;;;;;;;;;;;;2219235;58;2314;-17
2023/06/14 04:23:28;;;;;;;;;;;;;;;;;;2215417;59;2421;-17
2023/06/14 04:26:02;;;;;;;;;;;;;;;;;;2218087;58;1655;-17
2023/06/14 04:28:37;;;;;;;;;;;;;;;;;;2218205;59;1507;-17
2023/06/14 04:31:08;;;;;;;;;;;;;;;;;;2217552;58;2063;-17
2023/06/14 04:33:43;;;;;;;;;;;;;;;;;;2217254;66;1539;-17
2023/06/14 04:36:17;;;;;;;;;;;;;;;;;;2213786;59;1643;-17
2023/06/14 04:38:48;;;;;;;;;;;;;;;;;;2217599;66;2157;-17
2023/06/14 04:41:20;;;;;;;;;;;;;;;;;;2217987;58;1393;-17
2023/06/14 04:43:53;;;;;;;;;;;;;;;;;;2218867;66;1191;-17
2023/06/14 04:46:24;;;;;;;;;;;;;;;;;;2218032;59;1821;-18
2023/06/14 04:49:02;;;;;;;;;;;;;;;;;;2218261;59;1656;-18
2023/06/14 04:51:33;;;;;;;;;;;;;;;;;;2218583;58;1292;-17
2023/06/14 04:54:04;;;;;;;;;;;;;;;;;;2218534;59;1691;-17
2023/06/14 04:56:35;;;;;;;;;;;;;;;;;;2214753;59;2023;-17
2023/06/14 04:59:05;;;;;;;;;;;;;;;;;;2219614;59;2151;-17
2023/06/14 05:01:37;;;;;;;;;;;;;;;;;;2218303;59;2109;-17
2023/06/14 05:04:07;;;;;;;;;;;;;;;;;;2214994;59;1170;-17
2023/06/14 05:06:41;;;;;;;;;;;;;;;;;;2218587;66;2232;-18
2023/06/14 05:09:12;;;;;;;;;;;;;;;;;;2221485;66;2018;-17
2023/06/14 05:11:45;;;;;;;;;;;;;;;;;;2221172;66;1313;-17
2023/06/14 05:14:15;;;;;;;;;;;;;;;;;;2215063;66;2920;-18
2023/06/14 05:16:48;;;;;;;;;;;;;;;;;;2215021;59;1383;-18
2023/06/14 05:19:20;;;;;;;;;;;;;;;;;;2218173;66;1896;-17
2023/06/14 05:21:50;;;;;;;;;;;;;;;;;;2218894;66;1430;-17
2023/06/14 05:24:21;;;;;;;;;;;;;;;;;;2218864;66;2015;-18
2023/06/14 05:26:51;;;;;;;;;;;;;;;;;;2218407;58;1272;-17
2023/06/14 05:29:22;;;;;;;;;;;;;;;;;;2219017;66;1910;-17
2023/06/14 05:31:52;;;;;;;;;;;;;;;;;;2219066;58;1300;-18
2023/06/14 05:34:22;;;;;;;;;;;;;;;;;;2217694;66;2117;-17
2023/06/14 05:36:53;;;;;;;;;;;;;;;;;;2218880;66;1619;-17
2023/06/14 05:39:24;;;;;;;;;;;;;;;;;;2218571;66;2145;-17
2023/06/14 05:41:55;;;;;;;;;;;;;;;;;;2219040;59;1385;-18
2023/06/14 05:44:25;;;;;;;;;;;;;;;;;;2215117;66;1613;-17
2023/06/14 05:46:55;;;;;;;;;;;;;;;;;;2218444;59;1672;-17
2023/06/14 05:49:25;;;;;;;;;;;;;;;;;;2218125;58;1601;-18
2023/06/14 05:51:56;;;;;;;;;;;;;;;;;;2217759;58;1349;-17
2023/06/14 05:54:29;;;;;;;;;;;;;;;;;;2217566;59;1243;-18
2023/06/14 05:57:01;;;;;;;;;;;;;;;;;;2217624;66;1194;-18
2023/06/14 05:59:31;;;;;;;;;;;;;;;;;;2217573;58;2134;-17
2023/06/14 06:02:02;;;;;;;;;;;;;;;;;;2217182;58;1320;-17
2023/06/14 06:04:32;;;;;;;;;;;;;;;;;;2217380;59;1653;-17
2023/06/14 06:07:03;;;;;;;;;;;;;;;;;;2218136;66;1472;-17
2023/06/14 06:09:33;;;;;;;;;;;;;;;;;;2214466;66;1291;-17
2023/06/14 06:12:07;;;;;;;;;;;;;;;;;;2214751;59;2283;-17
2023/06/14 06:14:37;;;;;;;;;;;;;;;;;;2216543;58;2091;-17
2023/06/14 06:17:07;;;;;;;;;;;;;;;;;;2217305;58;2201;-18
2023/06/14 06:19:40;;;;;;;;;;;;;;;;;;2218561;58;1941;-18
2023/06/14 06:22:11;;;;;;;;;;;;;;;;;;2218298;58;1419;-17
2023/06/14 06:24:41;;;;;;;;;;;;;;;;;;2213869;66;1276;-18
2023/06/14 06:27:12;;;;;;;;;;;;;;;;;;2214770;59;1190;-18
2023/06/14 06:29:43;;;;;;;;;;;;;;;;;;2217344;59;1337;-18
2023/06/14 06:32:14;;;;;;;;;;;;;;;;;;2218102;58;1338;-18
2023/06/14 06:34:45;;;;;;;;;;;;;;;;;;2218436;58;1372;-18
2023/06/14 06:37:19;;;;;;;;;;;;;;;;;;2218024;59;1592;-18
2023/06/14 06:39:49;;;;;;;;;;;;;;;;;;2218055;66;1999;-18
2023/06/14 06:42:19;;;;;;;;;;;;;;;;;;2217961;66;1314;-18
2023/06/14 06:44:53;;;;;;;;;;;;;;;;;;2215075;66;1460;-18
2023/06/14 06:47:24;;;;;;;;;;;;;;;;;;2215968;59;1816;-18
2023/06/14 06:49:55;;;;;;;;;;;;;;;;;;2213173;59;1277;-18
2023/06/14 06:52:25;;;;;;;;;;;;;;;;;;2219108;58;2071;-18
2023/06/14 06:54:59;;;;;;;;;;;;;;;;;;2218322;66;1195;-18
2023/06/14 06:57:29;;;;;;;;;;;;;;;;;;2215439;59;1996;-18
2023/06/14 06:59:59;;;;;;;;;;;;;;;;;;2218338;58;1912;-19
2023/06/14 07:02:30;;;;;;;;;;;;;;;;;;2217935;58;2083;-18
2023/06/14 07:05:01;;;;;;;;;;;;;;;;;;2214188;59;1206;-18
2023/06/14 07:07:31;;;;;;;;;;;;;;;;;;2216719;58;1925;-18
2023/06/14 07:10:04;;;;;;;;;;;;;;;;;;2217472;59;2097;-18
2023/06/14 07:12:39;;;;;;;;;;;;;;;;;;2218496;59;1945;-18
2023/06/14 07:15:09;;;;;;;;;;;;;;;;;;2217556;59;2001;-18
2023/06/14 07:17:40;;;;;;;;;;;;;;;;;;2217888;66;1118;-18
2023/06/14 07:20:13;;;;;;;;;;;;;;;;;;2212641;58;2706;-18
2023/06/14 07:22:44;;;;;;;;;;;;;;;;;;2217418;58;2293;-18
2023/06/14 07:25:14;;;;;;;;;;;;;;;;;;2214980;66;1616;-18
2023/06/14 07:27:45;;;;;;;;;;;;;;;;;;2214091;59;1699;-18
2023/06/14 07:30:16;;;;;;;;;;;;;;;;;;2215157;58;1298;-18
2023/06/14 07:32:46;;;;;;;;;;;;;;;;;;2215942;66;1657;-18
2023/06/14 07:35:17;;;;;;;;;;;;;;;;;;2217722;59;1974;-18
2023/06/14 07:37:47;;;;;;;;;;;;;;;;;;2212966;66;1459;-18
2023/06/14 07:40:17;;;;;;;;;;;;;;;;;;2214009;66;1937;-18
2023/06/14 07:42:51;;;;;;;;;;;;;;;;;;2215154;66;1260;-18
2023/06/14 07:45:21;;;;;;;;;;;;;;;;;;2216799;66;1414;-18
2023/06/14 07:47:51;;;;;;;;;;;;;;;;;;2209870;59;1835;-18
2023/06/14 07:50:22;;;;;;;;;;;;;;;;;;2216166;66;1214;-30
2023/06/14 07:52:55;;;;;;;;;;;;;;;;;;2217321;58;1456;-19
2023/06/14 07:55:26;;;;;;;;;;;;;;;;;;2214617;66;1752;-19
2023/06/14 07:57:59;;;;;;;;;;;;;;;;;;2216806;59;2045;-18
2023/06/14 08:00:30;;;;;;;;;;;;;;;;;;2216386;58;1925;-18
2023/06/14 08:03:00;;;;;;;;;;;;;;;;;;2216416;58;2231;-19
2023/06/14 08:05:31;;;;;;;;;;;;;;;;;;2216549;58;1281;-18
2023/06/14 08:08:01;;;;;;;;;;;;;;;;;;2215355;66;1179;-18
2023/06/14 08:10:31;;;;;;;;;;;;;;;;;;2216175;59;1760;-19
2023/06/14 08:13:02;;;;;;;;;;;;;;;;;;2215348;58;2080;-19
2023/06/14 08:15:32;;;;;;;;;;;;;;;;;;2212447;58;2336;-19
2023/06/14 08:18:02;;;;;;;;;;;;;;;;;;2214736;59;2236;-18
2023/06/14 08:20:32;;;;;;;;;;;;;;;;;;2215975;66;1994;-19
2023/06/14 08:23:03;;;;;;;;;;;;;;;;;;2215943;66;2167;-19
2023/06/14 08:25:40;;;;;;;;;;;;;;;;;;2216780;66;2151;-19
2023/06/14 08:28:10;;;;;;;;;;;;;;;;;;2216249;58;1388;-19
2023/06/14 08:30:42;;;;;;;;;;;;;;;;;;2216636;58;1327;-19
2023/06/14 08:33:12;;;;;;;;;;;;;;;;;;2215456;59;2144;-19
2023/06/14 08:35:43;;;;;;;;;;;;;;;;;;2215813;66;1299;-19
2023/06/14 08:38:14;;;;;;;;;;;;;;;;;;2215856;66;1232;-19
2023/06/14 08:40:48;;;;;;;;;;;;;;;;;;2217013;66;1933;-19
2023/06/14 08:43:18;;;;;;;;;;;;;;;;;;2217856;66;1238;-21
2023/06/14 08:45:50;;;;;;;;;;;;;;;;;;2217779;66;1355;-20
2023/06/14 08:48:22;;;;;;;;;;;;;;;;;;2216385;58;1670;-19
2023/06/14 08:51:01;;;;;;;;;;;;;;;;;;2217943;58;1860;-19
2023/06/14 08:53:33;;;;;;;;;;;;;;;;;;2215460;66;1530;-19
2023/06/14 08:56:04;;;;;;;;;;;;;;;;;;2217238;58;1658;-19
2023/06/14 08:58:36;;;;;;;;;;;;;;;;;;2216339;58;2102;-19
2023/06/14 09:01:07;;;;;;;;;;;;;;;;;;2217173;58;2016;-19
2023/06/14 09:03:40;;;;;;;;;;;;;;;;;;2216282;59;1847;-19
2023/06/14 09:06:13;;;;;;;;;;;;;;;;;;2215861;59;2460;-19
2023/06/14 09:08:44;;;;;;;;;;;;;;;;;;2213498;58;2224;-19
2023/06/14 09:11:18;;;;;;;;;;;;;;;;;;2210783;58;2222;-19
2023/06/14 09:13:49;;;;;;;;;;;;;;;;;;2211792;66;1329;-19
2023/06/14 09:16:20;;;;;;;;;;;;;;;;;;2213293;59;2186;-19
2023/06/14 09:18:50;;;;;;;;;;;;;;;;;;2217912;58;2207;-21
2023/06/14 09:21:21;;;;;;;;;;;;;;;;;;2216807;58;2412;-21
2023/06/14 09:23:52;;;;;;;;;;;;;;;;;;2218229;59;2670;-21
2023/06/14 09:26:23;;;;;;;;;;;;;;;;;;2218065;58;2259;-21
2023/06/14 09:28:53;;;;;;;;;;;;;;;;;;2216282;66;2489;-21
2023/06/14 09:31:23;;;;;;;;;;;;;;;;;;2216766;58;1550;-21
2023/06/14 09:33:56;;;;;;;;;;;;;;;;;;2216034;66;2776;-21
2023/06/14 09:36:27;;;;;;;;;;;;;;;;;;2216489;58;1640;-21
2023/06/14 09:39:04;;;;;;;;;;;;;;;;;;2212801;59;2553;-21
2023/06/14 09:41:39;;;;;;;;;;;;;;;;;;2216309;58;1731;-21
2023/06/14 09:44:11;;;;;;;;;;;;;;;;;;2212571;66;1971;-22
2023/06/14 09:46:42;;;;;;;;;;;;;;;;;;2215675;58;2065;-21
2023/06/14 09:49:12;;;;;;;;;;;;;;;;;;2215887;66;2485;-19
2023/06/14 09:51:44;;;;;;;;;;;;;;;;;;2213419;59;1469;-19
2023/06/14 09:54:15;;;;;;;;;;;;;;;;;;2215741;59;1756;-19
2023/06/14 09:56:47;;;;;;;;;;;;;;;;;;2214859;66;2421;-19
2023/06/14 09:59:26;;;;;;;;;;;;;;;;;;2213554;58;2324;-19
2023/06/14 10:01:58;;;;;;;;;;;;;;;;;;2214705;58;3052;-19
2023/06/14 10:04:30;;;;;;;;;;;;;;;;;;2211296;58;2541;-19
2023/06/14 10:07:02;;;;;;;;;;;;;;;;;;2211194;66;2809;-19
2023/06/14 10:09:34;;;;;;;;;;;;;;;;;;2214297;66;2060;-20
2023/06/14 10:12:05;;;;;;;;;;;;;;;;;;2212309;66;2739;-19
2023/06/14 10:14:35;;;;;;;;;;;;;;;;;;2211605;66;2175;-19
2023/06/14 10:17:10;;;;;;;;;;;;;;;;;;2214993;66;2850;-19
2023/06/14 10:19:44;;;;;;;;;;;;;;;;;;2215378;66;1960;-19
2023/06/14 10:22:17;;;;;;;;;;;;;;;;;;2214538;59;2557;-19
2023/06/14 10:24:48;;;;;;;;;;;;;;;;;;2211870;66;2501;-19
2023/06/14 10:27:23;;;;;;;;;;;;;;;;;;2212624;59;2271;-19
2023/06/14 10:29:53;;;;;;;;;;;;;;;;;;2215657;58;1900;-19
2023/06/14 10:32:28;;;;;;;;;;;;;;;;;;2215371;58;1566;-19
2023/06/14 10:35:04;;;;;;;;;;;;;;;;;;2215118;59;2491;-19
2023/06/14 10:37:35;;;;;;;;;;;;;;;;;;2216217;66;1575;-19
2023/06/14 10:40:08;;;;;;;;;;;;;;;;;;2215104;66;1927;-19
2023/06/14 10:42:50;;;;;;;;;;;;;;;;;;2211714;59;1852;-19
2023/06/14 10:45:21;;;;;;;;;;;;;;;;;;2215849;66;2286;-19
2023/06/14 10:47:52;;;;;;;;;;;;;;;;;;2215710;59;1742;-19
2023/06/14 10:50:28;;;;;;;;;;;;;;;;;;2215384;58;1315;-19
2023/06/14 10:52:58;;;;;;;;;;;;;;;;;;2212210;59;1219;-19
2023/06/14 10:55:34;;;;;;;;;;;;;;;;;;2212943;59;1500;-19
2023/06/14 10:58:04;;;;;;;;;;;;;;;;;;2213198;59;2251;-19
2023/06/14 11:00:38;;;;;;;;;;;;;;;;;;2215564;58;1941;-19
2023/06/14 11:03:24;;;;;;;;;;;;;;;;;;2213401;59;1622;-19
2023/06/14 11:05:56;;;;;;;;;;;;;;;;;;2217409;66;1592;-19
2023/06/14 11:08:45;;;;;;;;;;;;;;;;;;2215795;66;1388;-19
2023/06/14 11:11:15;;;;;;;;;;;;;;;;;;2211663;66;1400;-19
2023/06/14 11:13:45;;;;;;;;;;;;;;;;;;2215711;66;1700;-19
2023/06/14 11:16:16;;;;;;;;;;;;;;;;;;2215390;66;1250;-19
2023/06/14 11:18:47;;;;;;;;;;;;;;;;;;2215987;66;1999;-19
2023/06/14 11:21:20;;;;;;;;;;;;;;;;;;2215494;66;1317;-19
2023/06/14 11:23:51;;;;;;;;;;;;;;;;;;2211409;66;2683;-19
2023/06/14 11:26:26;;;;;;;;;;;;;;;;;;2213584;59;2807;-19
2023/06/14 11:29:00;;;;;;;;;;;;;;;;;;2216492;66;1767;-19
2023/06/14 11:31:34;;;;;;;;;;;;;;;;;;2217473;58;2395;-19
2023/06/14 11:34:06;;;;;;;;;;;;;;;;;;2216100;66;1913;-19
2023/06/14 11:36:36;;;;;;;;;;;;;;;;;;2214426;66;2457;-19
2023/06/14 11:39:13;;;;;;;;;;;;;;;;;;2217984;66;2000;-19
2023/06/14 11:41:44;;;;;;;;;;;;;;;;;;2218593;66;1906;-19
2023/06/14 11:44:15;;;;;;;;;;;;;;;;;;2217987;58;1707;-19
2023/06/14 11:46:45;;;;;;;;;;;;;;;;;;2216259;59;1868;-19
2023/06/14 11:49:15;;;;;;;;;;;;;;;;;;2217326;66;1747;-19
2023/06/14 11:51:46;;;;;;;;;;;;;;;;;;2218071;58;1371;-20
2023/06/14 11:54:16;;;;;;;;;;;;;;;;;;2216817;59;1874;-21
2023/06/14 11:56:47;;;;;;;;;;;;;;;;;;2213968;59;1440;-21
2023/06/14 11:59:17;;;;;;;;;;;;;;;;;;2215601;58;2114;-21
2023/06/14 12:01:47;;;;;;;;;;;;;;;;;;2217717;66;1560;-21
2023/06/14 12:04:25;;;;;;;;;;;;;;;;;;2216095;59;1849;-21
2023/06/14 12:06:55;;;;;;;;;;;;;;;;;;2215849;66;1369;-21
2023/06/14 12:09:26;;;;;;;;;;;;;;;;;;2217252;66;1447;-21
2023/06/14 12:11:59;;;;;;;;;;;;;;;;;;2215743;66;1654;-21
2023/06/14 12:14:32;;;;;;;;;;;;;;;;;;2216640;66;1254;-21
2023/06/14 12:17:06;;;;;;;;;;;;;;;;;;2214210;66;1744;-21
2023/06/14 12:19:43;;;;;;;;;;;;;;;;;;2214961;66;2027;-21
2023/06/14 12:22:13;;;;;;;;;;;;;;;;;;2217413;66;1212;-21
2023/06/14 12:24:44;;;;;;;;;;;;;;;;;;2218073;59;2810;-21
2023/06/14 12:27:23;;;;;;;;;;;;;;;;;;2216853;58;2733;-21
2023/06/14 12:30:03;;;;;;;;;;;;;;;;;;2216181;66;1524;-21
2023/06/14 12:32:33;;;;;;;;;;;;;;;;;;2218025;58;1774;-21
2023/06/14 12:35:04;;;;;;;;;;;;;;;;;;2215954;66;2502;-21
2023/06/14 12:37:34;;;;;;;;;;;;;;;;;;2217188;66;1960;-21
2023/06/14 12:40:05;;;;;;;;;;;;;;;;;;2215881;66;2038;-21
2023/06/14 12:42:36;;;;;;;;;;;;;;;;;;2215694;66;2180;-21
2023/06/14 12:45:06;;;;;;;;;;;;;;;;;;2213501;66;2420;-21
2023/06/14 12:47:37;;;;;;;;;;;;;;;;;;2215510;58;1902;-21
2023/06/14 12:50:10;;;;;;;;;;;;;;;;;;2216120;59;1911;-21
2023/06/14 12:52:40;;;;;;;;;;;;;;;;;;2216613;58;1775;-21
2023/06/14 12:55:10;;;;;;;;;;;;;;;;;;2216326;66;1774;-21
2023/06/14 12:57:41;;;;;;;;;;;;;;;;;;2216293;59;2069;-21
2023/06/14 13:00:12;;;;;;;;;;;;;;;;;;2216428;58;2394;-21
2023/06/14 13:02:43;;;;;;;;;;;;;;;;;;2216349;58;2147;-18
2023/06/14 13:05:13;;;;;;;;;;;;;;;;;;2215524;59;2317;-18
2023/06/14 13:07:44;;;;;;;;;;;;;;;;;;2216608;66;1905;-18
2023/06/14 13:10:14;;;;;;;;;;;;;;;;;;2214931;66;1866;-18
2023/06/14 13:12:45;;;;;;;;;;;;;;;;;;2212355;66;2449;-18
2023/06/14 13:15:15;;;;;;;;;;;;;;;;;;2215529;66;2027;-18
2023/06/14 13:17:48;;;;;;;;;;;;;;;;;;2215719;66;1959;-18
2023/06/14 13:20:18;;;;;;;;;;;;;;;;;;2215155;66;3036;-21
2023/06/14 13:22:49;;;;;;;;;;;;;;;;;;2216438;66;1939;-21
2023/06/14 13:25:19;;;;;;;;;;;;;;;;;;2216412;59;2109;-21
2023/06/14 13:27:50;;;;;;;;;;;;;;;;;;2215767;58;3762;-21
2023/06/14 13:30:21;;;;;;;;;;;;;;;;;;2212113;58;1767;-21
2023/06/14 13:32:51;;;;;;;;;;;;;;;;;;2216665;66;1964;-21
2023/06/14 13:35:22;;;;;;;;;;;;;;;;;;2211651;66;1803;-21
2023/06/14 13:37:52;;;;;;;;;;;;;;;;;;2216185;66;1864;-21
2023/06/14 13:40:23;;;;;;;;;;;;;;;;;;2215740;66;1940;-21
2023/06/14 13:42:53;;;;;;;;;;;;;;;;;;2212491;66;1138;-21
2023/06/14 13:45:23;;;;;;;;;;;;;;;;;;2215159;66;1365;-21
2023/06/14 13:47:54;;;;;;;;;;;;;;;;;;2215574;58;1719;-21
2023/06/14 13:50:25;;;;;;;;;;;;;;;;;;2215047;66;1366;-21
2023/06/14 13:52:55;;;;;;;;;;;;;;;;;;2215176;58;1582;-21
2023/06/14 13:55:25;;;;;;;;;;;;;;;;;;2214884;66;2169;-21
2023/06/14 13:57:56;;;;;;;;;;;;;;;;;;2215691;58;2043;-21
2023/06/14 14:00:27;;;;;;;;;;;;;;;;;;2215143;58;1927;-21
2023/06/14 14:03:03;;;;;;;;;;;;;;;;;;2211598;59;1787;-21
2023/06/14 14:05:33;;;;;;;;;;;;;;;;;;2215110;58;1211;-21
2023/06/14 14:08:04;;;;;;;;;;;;;;;;;;2215373;66;1457;-21
2023/06/14 14:10:34;;;;;;;;;;;;;;;;;;2215551;66;1642;-21
2023/06/14 14:13:04;;;;;;;;;;;;;;;;;;2215603;66;1256;-21
2023/06/14 14:15:34;;;;;;;;;;;;;;;;;;2215555;66;1784;-21
2023/06/14 14:18:07;;;;;;;;;;;;;;;;;;2215147;66;1191;-21
2023/06/14 14:20:37;;;;;;;;;;;;;;;;;;2214833;59;3852;-21
2023/06/14 14:23:08;;;;;;;;;;;;;;;;;;2211730;66;1964;-19
2023/06/14 14:25:38;;;;;;;;;;;;;;;;;;2215877;59;2095;-19
2023/06/14 14:28:08;;;;;;;;;;;;;;;;;;2210669;66;3024;-19
2023/06/14 14:30:39;;;;;;;;;;;;;;;;;;2211883;58;2134;-19
2023/06/14 14:33:15;;;;;;;;;;;;;;;;;;2216585;66;1743;-19
2023/06/14 14:35:45;;;;;;;;;;;;;;;;;;2216198;66;2103;-19
2023/06/14 14:38:16;;;;;;;;;;;;;;;;;;2217210;66;1955;-18
2023/06/14 14:40:46;;;;;;;;;;;;;;;;;;2217940;66;1988;-19
2023/06/14 14:43:17;;;;;;;;;;;;;;;;;;2217019;59;2460;-19
2023/06/14 14:45:47;;;;;;;;;;;;;;;;;;2211273;66;1912;-19
2023/06/14 14:48:17;;;;;;;;;;;;;;;;;;2215467;58;2433;-19
2023/06/14 14:50:47;;;;;;;;;;;;;;;;;;2216659;58;2040;-19
2023/06/14 14:53:18;;;;;;;;;;;;;;;;;;2216250;66;1781;-19
2023/06/14 14:55:48;;;;;;;;;;;;;;;;;;2213271;66;1515;-19
2023/06/14 14:58:19;;;;;;;;;;;;;;;;;;2214690;59;1717;-19
2023/06/14 15:00:50;;;;;;;;;;;;;;;;;;2215497;58;1937;-19
2023/06/14 15:03:20;;;;;;;;;;;;;;;;;;2216323;58;1460;-19
2023/06/14 15:05:50;;;;;;;;;;;;;;;;;;2216069;66;1738;-19
2023/06/14 15:08:20;;;;;;;;;;;;;;;;;;2215145;66;2080;-19
2023/06/14 15:10:51;;;;;;;;;;;;;;;;;;2211260;66;1248;-19
2023/06/14 15:13:22;;;;;;;;;;;;;;;;;;2214679;66;1211;-19
2023/06/14 15:15:53;;;;;;;;;;;;;;;;;;2217246;66;1738;-18
2023/06/14 15:18:23;;;;;;;;;;;;;;;;;;2215778;66;1668;-19
2023/06/14 15:20:53;;;;;;;;;;;;;;;;;;2205442;59;2129;-23
2023/06/14 15:23:23;;;;;;;;;;;;;;;;;;2201398;66;2342;-23
2023/06/14 15:25:54;;;;;;;;;;;;;;;;;;2200118;59;2268;-23
2023/06/14 15:28:28;;;;;;;;;;;;;;;;;;2200765;59;2480;-23
2023/06/14 15:31:01;;;;;;;;;;;;;;;;;;2196305;59;1837;-23
2023/06/14 15:33:31;;;;;;;;;;;;;;;;;;2199446;66;2426;-23
2023/06/14 15:36:02;;;;;;;;;;;;;;;;;;2199766;66;1978;-23
2023/06/14 15:38:33;;;;;;;;;;;;;;;;;;2199428;66;1748;-23
2023/06/14 15:41:04;;;;;;;;;;;;;;;;;;2195171;67;2026;-23
2023/06/14 15:43:34;;;;;;;;;;;;;;;;;;2200300;66;2310;-23
2023/06/14 15:46:04;;;;;;;;;;;;;;;;;;2196343;59;1513;-23
2023/06/14 15:48:34;;;;;;;;;;;;;;;;;;2198769;59;1811;-23
2023/06/14 15:51:05;;;;;;;;;;;;;;;;;;2198541;66;2091;-23
2023/06/14 15:53:35;;;;;;;;;;;;;;;;;;2200264;66;2625;-23
2023/06/14 15:56:05;;;;;;;;;;;;;;;;;;2199778;59;2373;-23
2023/06/14 15:58:36;;;;;;;;;;;;;;;;;;2199681;59;2028;-23
2023/06/14 16:01:06;;;;;;;;;;;;;;;;;;2200128;59;3890;-23
2023/06/14 16:03:36;;;;;;;;;;;;;;;;;;2199717;66;2577;-23
2023/06/14 16:06:06;;;;;;;;;;;;;;;;;;2199727;66;2120;-24
2023/06/14 16:08:36;;;;;;;;;;;;;;;;;;2199046;66;2481;-24
2023/06/14 16:11:07;;;;;;;;;;;;;;;;;;2200385;66;2118;-24
2023/06/14 16:13:40;;;;;;;;;;;;;;;;;;2200050;66;1978;-24
2023/06/14 16:16:11;;;;;;;;;;;;;;;;;;2202016;59;1821;-22
2023/06/14 16:18:44;;;;;;;;;;;;;;;;;;2196879;66;2138;-22
2023/06/14 16:21:15;;;;;;;;;;;;;;;;;;2200017;59;2588;-23
2023/06/14 16:23:45;;;;;;;;;;;;;;;;;;2201448;58;1656;-23
2023/06/14 16:26:16;;;;;;;;;;;;;;;;;;2200026;59;2297;-23
2023/06/14 16:28:46;;;;;;;;;;;;;;;;;;2199670;59;2387;-23
2023/06/14 16:31:19;;;;;;;;;;;;;;;;;;2199405;59;2884;-23
2023/06/14 16:33:54;;;;;;;;;;;;;;;;;;2200567;59;3287;-23
2023/06/14 16:36:24;;;;;;;;;;;;;;;;;;2200071;66;2788;-24
2023/06/14 16:38:55;;;;;;;;;;;;;;;;;;2199855;59;1755;-23
2023/06/14 16:41:25;;;;;;;;;;;;;;;;;;2198614;59;1945;-23
2023/06/14 16:43:55;;;;;;;;;;;;;;;;;;2200714;66;2003;-24
2023/06/14 16:46:30;;;;;;;;;;;;;;;;;;2200490;59;1826;-24
2023/06/14 16:49:00;;;;;;;;;;;;;;;;;;2201313;66;2338;-25
2023/06/14 16:51:31;;;;;;;;;;;;;;;;;;2196331;59;2351;-24
2023/06/14 16:54:01;;;;;;;;;;;;;;;;;;2200717;66;2448;-23
2023/06/14 16:56:32;;;;;;;;;;;;;;;;;;2198155;59;2401;-24
2023/06/14 16:59:02;;;;;;;;;;;;;;;;;;2198546;59;2019;-24
2023/06/14 17:01:34;;;;;;;;;;;;;;;;;;2196335;59;2020;-24
2023/06/14 17:04:04;;;;;;;;;;;;;;;;;;2193853;59;1954;-23
2023/06/14 17:06:35;;;;;;;;;;;;;;;;;;2199704;59;2318;-24
2023/06/14 17:09:05;;;;;;;;;;;;;;;;;;2200973;59;2346;-23
2023/06/14 17:11:35;;;;;;;;;;;;;;;;;;2200225;66;1699;-23
2023/06/14 17:14:07;;;;;;;;;;;;;;;;;;2200354;59;2103;-24
2023/06/14 17:16:38;;;;;;;;;;;;;;;;;;2197548;66;1838;-23
2023/06/14 17:19:08;;;;;;;;;;;;;;;;;;2201052;66;1927;-23
2023/06/14 17:21:38;;;;;;;;;;;;;;;;;;2199868;66;2091;-23
2023/06/14 17:24:09;;;;;;;;;;;;;;;;;;2199884;63;2307;-23
2023/06/14 17:26:39;;;;;;;;;;;;;;;;;;2201200;59;1656;-23
2023/06/14 17:29:09;;;;;;;;;;;;;;;;;;2201700;66;2741;-23
2023/06/14 17:31:40;;;;;;;;;;;;;;;;;;2198568;59;2301;-23